Time;durP1;ratioP1;P1;durP2;ratioP2;P2;SDS_P1;SDS_P2;PMS_P1;PMS_P2;Temp;Humidity;BMP_temperature;BMP_pressure;BME280_temperature;BME280_humidity;BME280_pressure;Samples;Min_cycle;Max_cycle;Signal;HPM_P1;HPM_P2
2024/02/08 00:00:09;;;;;;;1.50;1.13;;;9.80;82.10;;;;;;5031493;28;20243;-68
2024/02/08 00:02:35;;;;;;;4.27;1.47;;;9.80;82.10;;;;;;5031671;28;20424;-69
2024/02/08 00:05:02;;;;;;;1.60;1.00;;;9.90;82.10;;;;;;5032072;28;20450;-71
2024/02/08 00:07:27;;;;;;;1.80;1.20;;;9.90;82.10;;;;;;5025992;28;20193;-70
2024/02/08 00:09:55;;;;;;;1.27;0.83;;;9.90;81.90;;;;;;5027194;28;20920;-70
2024/02/08 00:12:21;;;;;;;3.10;1.20;;;9.90;82.10;;;;;;5022016;28;20200;-70
2024/02/08 00:14:49;;;;;;;1.30;0.90;;;9.90;81.90;;;;;;5021903;28;20473;-69
2024/02/08 00:17:19;;;;;;;1.73;1.00;;;9.90;82.10;;;;;;5026096;28;20439;-70
2024/02/08 00:19:51;;;;;;;2.00;0.90;;;9.90;81.90;;;;;;5026749;28;20434;-70
2024/02/08 00:22:20;;;;;;;1.03;0.87;;;10.00;81.80;;;;;;5025058;28;20855;-70
2024/02/08 00:24:46;;;;;;;5.30;1.07;;;10.00;81.90;;;;;;5026597;28;20428;-70
2024/02/08 00:27:12;;;;;;;1.67;1.00;;;9.90;81.90;;;;;;5022462;28;20971;-70
2024/02/08 00:29:43;;;;;;;1.87;1.10;;;10.00;81.90;;;;;;5030763;28;20455;-70
2024/02/08 00:32:09;;;;;;;2.50;0.80;;;9.90;81.90;;;;;;5020754;28;20248;-69
2024/02/08 00:34:35;;;;;;;1.50;0.80;;;10.00;81.90;;;;;;5020354;28;20584;-68
2024/02/08 00:37:01;;;;;;;1.57;0.93;;;10.00;81.90;;;;;;5034282;28;20181;-70
2024/02/08 00:39:26;;;;;;;1.63;0.80;;;10.00;81.90;;;;;;5034488;28;20204;-70
2024/02/08 00:41:57;;;;;;;1.00;0.87;;;10.00;81.90;;;;;;5021112;28;20232;-71
2024/02/08 00:44:26;;;;;;;1.63;0.97;;;10.00;81.90;;;;;;5024386;28;20185;-70
2024/02/08 00:46:51;;;;;;;1.80;0.87;;;10.00;81.90;;;;;;5027397;28;20440;-70
2024/02/08 00:49:17;;;;;;;1.60;0.90;;;10.00;81.90;;;;;;5029341;28;20767;-71
2024/02/08 00:51:43;;;;;;;1.00;0.80;;;10.10;81.90;;;;;;5021059;28;20474;-68
2024/02/08 00:54:09;;;;;;;0.93;0.70;;;10.10;81.90;;;;;;5025352;28;20219;-70
2024/02/08 00:56:34;;;;;;;1.30;0.90;;;10.10;82.10;;;;;;5022293;28;20185;-69
2024/02/08 00:59:00;;;;;;;1.67;1.00;;;10.10;81.90;;;;;;5028879;28;20420;-70
2024/02/08 01:01:26;;;;;;;2.13;1.00;;;10.10;81.90;;;;;;5019439;28;20217;-69
2024/02/08 01:03:51;;;;;;;1.00;0.80;;;10.10;81.90;;;;;;5026323;28;20177;-73
2024/02/08 01:06:17;;;;;;;1.10;0.77;;;10.10;81.90;;;;;;5029204;28;20243;-68
2024/02/08 01:08:42;;;;;;;1.50;0.93;;;10.10;81.90;;;;;;5029471;28;20208;-71
2024/02/08 01:11:08;;;;;;;1.20;0.80;;;10.10;81.90;;;;;;5026684;28;20270;-69
2024/02/08 01:13:34;;;;;;;1.73;0.90;;;10.10;81.90;;;;;;5031181;28;20697;-73
2024/02/08 01:16:00;;;;;;;1.80;0.90;;;10.10;82.10;;;;;;5024613;28;20681;-70
2024/02/08 01:18:25;;;;;;;1.53;0.80;;;10.10;82.10;;;;;;5028862;28;20194;-70
2024/02/08 01:20:52;;;;;;;1.00;0.73;;;10.10;82.10;;;;;;5023462;28;20231;-70
2024/02/08 01:23:18;;;;;;;1.00;0.80;;;10.10;82.20;;;;;;5030757;28;20436;-71
2024/02/08 01:25:46;;;;;;;1.90;1.07;;;10.10;82.20;;;;;;5029308;28;21161;-70
2024/02/08 01:28:12;;;;;;;1.63;0.90;;;10.10;82.20;;;;;;5030434;28;20505;-70
2024/02/08 01:30:41;;;;;;;1.30;1.00;;;10.10;82.10;;;;;;5027353;28;20469;-70
2024/02/08 01:33:06;;;;;;;2.67;1.00;;;10.10;82.20;;;;;;5031214;28;20463;-69
2024/02/08 01:35:33;;;;;;;1.77;1.10;;;10.10;82.20;;;;;;5031042;28;20478;-71
2024/02/08 01:37:59;;;;;;;1.00;0.80;;;10.20;82.20;;;;;;5031801;28;20272;-70
2024/02/08 01:40:26;;;;;;;1.87;0.90;;;10.20;82.20;;;;;;5035874;28;20495;-69
2024/02/08 01:42:57;;;;;;;0.90;0.90;;;10.10;82.20;;;;;;5043891;28;20519;-69
2024/02/08 01:45:34;;;;;;;1.20;0.73;;;10.20;82.20;;;;;;5032386;28;20456;-70
2024/02/08 01:48:12;;;;;;;1.20;0.90;;;10.20;82.20;;;;;;5032768;28;20416;-70
2024/02/08 01:50:41;;;;;;;1.00;0.70;;;10.20;82.20;;;;;;5026575;28;20547;-70
2024/02/08 01:53:18;;;;;;;1.20;0.80;;;10.20;82.20;;;;;;5024424;28;20420;-70
2024/02/08 01:55:52;;;;;;;1.33;0.93;;;10.10;82.20;;;;;;5026444;28;20427;-72
2024/02/08 01:58:20;;;;;;;4.50;0.90;;;10.10;82.40;;;;;;5032450;28;20797;-70
2024/02/08 02:00:49;;;;;;;2.10;1.00;;;10.10;82.50;;;;;;5026001;28;20483;-69
2024/02/08 02:03:16;;;;;;;1.93;0.77;;;10.20;82.40;;;;;;5024303;28;20800;-69
2024/02/08 02:05:46;;;;;;;1.10;0.77;;;10.20;82.40;;;;;;5030354;28;20462;-69
2024/02/08 02:08:13;;;;;;;1.60;1.00;;;10.20;82.20;;;;;;5031801;28;20869;-69
2024/02/08 02:10:41;;;;;;;1.97;1.10;;;10.20;82.40;;;;;;5029763;28;20467;-70
2024/02/08 02:13:10;;;;;;;1.10;0.80;;;10.20;82.40;;;;;;5033962;28;20408;-70
2024/02/08 02:15:37;;;;;;;1.60;0.80;;;10.20;82.50;;;;;;5029856;28;20429;-70
2024/02/08 02:18:09;;;;;;;2.30;0.90;;;10.20;82.70;;;;;;5032870;28;20470;-71
2024/02/08 02:20:35;;;;;;;1.33;0.90;;;10.20;82.50;;;;;;5029712;28;20989;-71
2024/02/08 02:23:03;;;;;;;1.70;0.93;;;10.20;82.50;;;;;;5033905;28;20420;-70
2024/02/08 02:25:29;;;;;;;1.70;0.90;;;10.20;82.70;;;;;;5031370;28;20552;-70
2024/02/08 02:27:58;;;;;;;1.77;1.10;;;10.20;82.50;;;;;;5032326;28;20440;-70
2024/02/08 02:30:27;;;;;;;1.20;0.93;;;10.20;82.50;;;;;;5028847;28;21064;-71
2024/02/08 02:32:55;;;;;;;1.70;0.97;;;10.20;82.50;;;;;;5031743;28;20423;-71
2024/02/08 02:35:22;;;;;;;2.27;1.13;;;10.30;82.50;;;;;;5031595;28;20895;-72
2024/02/08 02:37:51;;;;;;;1.80;1.00;;;10.30;82.50;;;;;;5034122;28;20426;-69
2024/02/08 02:40:23;;;;;;;1.57;0.90;;;10.20;82.50;;;;;;5027017;28;20451;-71
2024/02/08 02:42:50;;;;;;;1.23;0.60;;;10.30;82.50;;;;;;5033711;28;20432;-71
2024/02/08 02:45:21;;;;;;;1.30;1.00;;;10.20;82.50;;;;;;5030653;28;20541;-69
2024/02/08 02:47:48;;;;;;;1.90;1.20;;;10.30;82.50;;;;;;5032293;28;20454;-72
2024/02/08 02:50:16;;;;;;;1.20;0.80;;;10.30;82.50;;;;;;5031122;28;20420;-72
2024/02/08 02:52:43;;;;;;;1.37;0.87;;;10.30;82.50;;;;;;5033932;28;20432;-70
2024/02/08 02:55:09;;;;;;;1.20;0.90;;;10.30;82.40;;;;;;5033423;28;20460;-70
2024/02/08 02:57:36;;;;;;;1.00;0.70;;;10.30;82.40;;;;;;5032056;28;20450;-69
2024/02/08 03:00:03;;;;;;;1.20;0.80;;;10.30;82.40;;;;;;5031023;28;20195;-70
2024/02/08 03:02:29;;;;;;;1.57;0.67;;;10.30;82.40;;;;;;5028927;28;20543;-71
2024/02/08 03:04:54;;;;;;;1.33;0.70;;;10.30;82.40;;;;;;5033826;28;20527;-70
2024/02/08 03:07:20;;;;;;;1.43;0.67;;;10.30;82.40;;;;;;5032678;28;20426;-69
2024/02/08 03:09:46;;;;;;;1.47;0.70;;;10.30;82.70;;;;;;5032484;28;20666;-70
2024/02/08 03:12:12;;;;;;;1.10;0.80;;;10.30;83.00;;;;;;5021022;28;20470;-71
2024/02/08 03:14:56;;;;;;;1.33;0.77;;;10.20;83.00;;;;;;5031594;28;20304;-70
2024/02/08 03:17:22;;;;;;;0.80;0.60;;;10.20;83.10;;;;;;5028193;28;20432;-71
2024/02/08 03:19:49;;;;;;;1.67;0.97;;;10.20;83.00;;;;;;5033942;28;20523;-71
2024/02/08 03:22:18;;;;;;;0.70;0.50;;;10.30;82.70;;;;;;5028910;28;21110;-71
2024/02/08 03:24:44;;;;;;;0.90;0.60;;;10.30;82.50;;;;;;5033411;28;20416;-68
2024/02/08 03:27:13;;;;;;;1.57;0.70;;;10.30;82.50;;;;;;5032588;28;20938;-69
2024/02/08 03:29:42;;;;;;;1.67;0.60;;;10.40;82.20;;;;;;5032768;28;20412;-70
2024/02/08 03:32:08;;;;;;;0.70;0.60;;;10.40;82.20;;;;;;5026587;28;21061;-71
2024/02/08 03:34:35;;;;;;;1.40;0.60;;;10.40;82.10;;;;;;5031179;28;20510;-71
2024/02/08 03:37:03;;;;;;;0.90;0.60;;;10.40;81.80;;;;;;5029945;28;20415;-68
2024/02/08 03:39:28;;;;;;;0.93;0.60;;;10.40;81.90;;;;;;5031192;28;20662;-71
2024/02/08 03:42:04;;;;;;;0.60;0.40;;;10.40;81.80;;;;;;5025739;28;21244;-70
2024/02/08 03:44:30;;;;;;;1.00;0.77;;;10.50;81.70;;;;;;5027008;28;20610;-70
2024/02/08 03:47:04;;;;;;;0.80;0.50;;;10.50;81.50;;;;;;5029866;28;20522;-70
2024/02/08 03:49:36;;;;;;;0.83;0.57;;;10.50;81.50;;;;;;5031732;28;20185;-69
2024/02/08 03:52:03;;;;;;;0.77;0.50;;;10.50;81.40;;;;;;5029208;28;20860;-70
2024/02/08 03:54:33;;;;;;;1.00;0.80;;;10.50;81.50;;;;;;5026395;28;21177;-69
2024/02/08 03:57:07;;;;;;;1.07;0.70;;;10.50;81.40;;;;;;5033020;28;20457;-71
2024/02/08 03:59:40;;;;;;;1.60;0.77;;;10.60;81.20;;;;;;5032081;28;20420;-71
2024/02/08 04:02:09;;;;;;;1.50;0.67;;;10.60;81.20;;;;;;5022737;28;20542;-72
2024/02/08 04:05:06;;;;;;;0.80;0.60;;;10.60;81.40;;;;;;5030708;28;20430;-69
2024/02/08 04:10:29;;;;;;;0.90;0.60;;;10.60;81.50;;;;;;5027364;28;20831;-71
2024/02/08 04:53:57;;;;;;;2.63;1.00;;;10.50;83.00;;;;;;5029896;28;20466;-70
2024/02/08 04:56:23;;;;;;;0.87;0.70;;;10.40;82.80;;;;;;5034121;28;20798;-73
2024/02/08 04:58:50;;;;;;;2.00;1.00;;;10.40;82.80;;;;;;5032405;28;20492;-72
2024/02/08 05:01:17;;;;;;;0.80;0.60;;;10.50;82.80;;;;;;5026931;28;20559;-71
2024/02/08 05:03:43;;;;;;;0.90;0.80;;;10.50;82.70;;;;;;5038797;28;20400;-71
2024/02/08 05:06:18;;;;;;;1.13;0.60;;;10.50;83.00;;;;;;5036092;28;20909;-70
2024/02/08 05:08:57;;;;;;;1.00;0.60;;;10.50;83.00;;;;;;5034186;28;20474;-70
2024/02/08 05:11:24;;;;;;;1.80;0.90;;;10.50;83.10;;;;;;5027335;28;20529;-69
2024/02/08 05:13:52;;;;;;;0.90;0.60;;;10.40;83.30;;;;;;5032092;28;20471;-70
2024/02/08 05:16:18;;;;;;;1.20;0.70;;;10.40;83.60;;;;;;5033631;28;20619;-70
2024/02/08 05:18:46;;;;;;;1.63;0.77;;;10.40;83.80;;;;;;5034178;28;20415;-71
2024/02/08 05:21:16;;;;;;;1.57;0.90;;;10.30;84.30;;;;;;5030875;28;20562;-70
2024/02/08 05:23:43;;;;;;;1.07;0.80;;;10.20;84.70;;;;;;5035133;28;20439;-70
2024/02/08 05:26:09;;;;;;;1.20;0.80;;;10.10;85.60;;;;;;5034086;28;20424;-70
2024/02/08 05:28:36;;;;;;;2.30;0.87;;;10.00;85.90;;;;;;5037322;28;20428;-70
2024/02/08 05:31:01;;;;;;;1.27;0.93;;;10.00;86.50;;;;;;5029653;28;20471;-70
2024/02/08 05:33:29;;;;;;;1.80;1.07;;;9.90;86.90;;;;;;5028750;28;20521;-71
2024/02/08 05:35:58;;;;;;;1.20;0.80;;;9.80;87.10;;;;;;5033949;28;20229;-71
2024/02/08 05:38:31;;;;;;;1.37;0.93;;;9.80;87.30;;;;;;5034377;28;20419;-71
2024/02/08 05:40:58;;;;;;;1.10;0.80;;;9.80;87.60;;;;;;5027350;28;20906;-71
2024/02/08 05:43:27;;;;;;;1.20;0.80;;;9.80;87.60;;;;;;5024510;28;20471;-71
2024/02/08 05:45:53;;;;;;;1.73;1.10;;;9.80;87.80;;;;;;5034059;28;20280;-71
2024/02/08 05:48:19;;;;;;;2.47;0.90;;;9.80;87.60;;;;;;5033294;28;20784;-70
2024/02/08 05:50:44;;;;;;;0.90;0.70;;;9.80;87.60;;;;;;5028830;28;20495;-71
2024/02/08 05:53:15;;;;;;;1.83;1.00;;;9.80;87.60;;;;;;5029047;28;20207;-70
2024/02/08 05:55:47;;;;;;;2.00;1.00;;;9.90;87.30;;;;;;5029708;28;20272;-71
2024/02/08 05:58:18;;;;;;;1.57;0.83;;;9.90;87.10;;;;;;5033994;28;20908;-70
2024/02/08 06:00:52;;;;;;;1.00;0.77;;;9.90;87.40;;;;;;5027515;28;20486;-71
2024/02/08 06:03:37;;;;;;;0.97;0.93;;;9.90;87.70;;;;;;5028040;28;20443;-69
2024/02/08 06:06:06;;;;;;;3.80;0.97;;;9.80;87.80;;;;;;5031406;28;20530;-70
2024/02/08 06:08:42;;;;;;;3.07;0.90;;;9.70;88.10;;;;;;5032449;28;20813;-68
2024/02/08 06:11:19;;;;;;;1.20;0.90;;;9.70;88.70;;;;;;5025919;28;20505;-70
2024/02/08 06:13:58;;;;;;;2.90;0.97;;;9.70;88.70;;;;;;5028057;28;20517;-70
2024/02/08 06:16:27;;;;;;;1.50;0.80;;;9.70;88.90;;;;;;5033429;28;20801;-72
2024/02/08 06:19:02;;;;;;;1.50;0.97;;;9.70;89.00;;;;;;5034125;28;20428;-71
2024/02/08 06:21:40;;;;;;;1.37;0.67;;;9.60;89.30;;;;;;5030088;28;20594;-69
2024/02/08 06:26:55;;;;;;;1.40;0.70;;;9.60;89.70;;;;;;5030484;28;20426;-72
2024/02/08 06:35:09;;;;;;;2.13;1.33;;;9.60;89.90;;;;;;5009751;28;20558;-71
2024/02/08 06:37:46;;;;;;;1.87;1.07;;;9.60;89.90;;;;;;5007583;28;20586;-69
2024/02/08 06:45:48;;;;;;;1.47;0.90;;;9.60;90.00;;;;;;5012648;28;20992;-73
2024/02/08 06:48:35;;;;;;;1.63;0.70;;;9.60;90.20;;;;;;5011398;28;21058;-71
2024/02/08 07:37:43;;;;;;;3.90;1.13;;;9.70;90.70;;;;;;5037548;28;20454;-70
2024/02/08 07:45:47;;;;;;;2.10;1.20;;;9.70;90.60;;;;;;5032060;28;20495;-73
2024/02/08 07:48:14;;;;;;;7.03;1.63;;;9.80;90.60;;;;;;5035630;28;20439;-70
2024/02/08 07:50:47;;;;;;;2.60;1.40;;;9.80;90.50;;;;;;5025455;28;20464;-71
2024/02/08 07:56:29;;;;;;;2.17;1.17;;;9.80;90.30;;;;;;5026555;28;20900;-72
2024/02/08 07:58:48;;;;;;;2.10;1.30;;;9.80;90.40;;;;;;5027999;28;20935;-71
2024/02/08 08:01:17;;;;;;;3.50;1.20;;;9.80;90.40;;;;;;5025043;28;20472;-70
2024/02/08 08:03:49;;;;;;;5.80;1.73;;;9.90;90.20;;;;;;5028054;28;20428;-72
2024/02/08 08:06:15;;;;;;;1.60;1.10;;;9.90;90.20;;;;;;5030523;28;20416;-72
2024/02/08 08:08:49;;;;;;;10.00;1.50;;;10.00;89.90;;;;;;5027452;28;20436;-73
2024/02/08 08:11:17;;;;;;;3.47;1.47;;;10.00;89.90;;;;;;5023721;28;20991;-71
2024/02/08 08:18:57;;;;;;;1.73;1.03;;;10.10;89.60;;;;;;5030504;28;20416;-71
2024/02/08 08:21:27;;;;;;;2.33;1.10;;;10.20;89.60;;;;;;5027194;28;20459;-73
2024/02/08 08:24:02;;;;;;;1.63;0.80;;;10.20;89.30;;;;;;5024135;28;20412;-73
2024/02/08 08:26:43;;;;;;;2.77;1.03;;;10.20;89.00;;;;;;5029804;28;20518;-71
2024/02/08 08:29:18;;;;;;;1.40;1.00;;;10.30;89.00;;;;;;5029537;28;20423;-72
2024/02/08 08:31:53;;;;;;;7.03;1.40;;;10.30;88.70;;;;;;5020465;28;20481;-71
2024/02/08 08:37:03;;;;;;;6.23;2.20;;;10.40;88.60;;;;;;5025177;28;20518;-71
2024/02/08 08:40:00;;;;;;;3.37;1.40;;;10.40;88.40;;;;;;5031709;28;20439;-73
2024/02/08 08:42:28;;;;;;;5.53;1.37;;;10.40;88.40;;;;;;5023676;28;20785;-73
2024/02/08 08:44:59;;;;;;;6.77;1.40;;;10.40;88.10;;;;;;5026870;28;20490;-70
2024/02/08 08:47:27;;;;;;;4.50;1.20;;;10.40;88.30;;;;;;5027390;28;20424;-73
2024/02/08 08:49:54;;;;;;;2.70;1.30;;;10.40;88.30;;;;;;5030559;28;20468;-73
2024/02/08 08:52:26;;;;;;;1.57;1.10;;;10.50;88.10;;;;;;5028100;28;20600;-74
2024/02/08 08:55:10;;;;;;;1.47;1.03;;;10.50;88.30;;;;;;5036769;28;20521;-74
2024/02/08 08:57:37;;;;;;;1.20;0.97;;;10.50;88.40;;;;;;5028068;28;20921;-73
2024/02/08 09:00:09;;;;;;;2.07;1.20;;;10.60;88.40;;;;;;5030986;28;20531;-73
2024/02/08 09:02:40;;;;;;;2.80;1.10;;;10.60;88.40;;;;;;5028025;28;20416;-73
2024/02/08 09:05:17;;;;;;;2.20;1.10;;;10.60;88.30;;;;;;5027488;28;20434;-75
2024/02/08 09:07:45;;;;;;;1.30;1.10;;;10.70;88.00;;;;;;5031576;28;20444;-74
2024/02/08 09:10:12;;;;;;;2.37;1.33;;;10.70;87.80;;;;;;5028303;28;20427;-73
2024/02/08 09:12:39;;;;;;;2.07;1.10;;;10.70;87.80;;;;;;5026862;28;20424;-73
2024/02/08 09:15:26;;;;;;;2.93;1.20;;;10.80;87.80;;;;;;5033634;28;20474;-73
2024/02/08 09:17:52;;;;;;;1.47;0.80;;;10.90;87.40;;;;;;5036371;28;20443;-74
2024/02/08 09:20:20;;;;;;;1.57;1.10;;;10.90;87.00;;;;;;5030166;28;20436;-74
2024/02/08 09:22:49;;;;;;;2.33;1.10;;;11.00;86.80;;;;;;5028982;28;20428;-74
2024/02/08 09:25:16;;;;;;;2.50;1.00;;;11.00;86.50;;;;;;5030217;28;20432;-73
2024/02/08 09:27:47;;;;;;;1.37;1.00;;;11.00;86.50;;;;;;5030771;28;20935;-71
2024/02/08 09:30:14;;;;;;;1.40;0.80;;;11.10;86.30;;;;;;5029064;28;20416;-72
2024/02/08 09:32:45;;;;;;;3.77;1.50;;;11.10;86.30;;;;;;5025488;28;20420;-72
2024/02/08 09:35:11;;;;;;;1.40;1.10;;;11.10;85.90;;;;;;5028458;28;20546;-72
2024/02/08 09:37:47;;;;;;;1.13;0.80;;;11.20;86.00;;;;;;5031508;28;20928;-70
2024/02/08 09:40:22;;;;;;;4.00;0.77;;;11.20;85.90;;;;;;5029459;28;20188;-73
2024/02/08 09:42:57;;;;;;;0.87;0.60;;;11.20;85.60;;;;;;5026538;28;20408;-74
2024/02/08 09:48:05;;;;;;;1.90;1.17;;;11.20;85.50;;;;;;5030575;28;20485;-75
2024/02/08 09:50:37;;;;;;;1.67;0.80;;;11.30;85.50;;;;;;5024329;28;20470;-73
2024/02/08 09:53:51;;;;;;;1.30;0.93;;;11.30;85.00;;;;;;5021551;28;20961;-74
2024/02/08 09:55:58;;;;;;;1.20;0.70;;;11.30;84.90;;;;;;5027146;28;20919;-74
2024/02/08 09:58:37;;;;;;;2.10;1.20;;;11.40;85.00;;;;;;5033449;28;21006;-74
2024/02/08 10:01:21;;;;;;;1.30;0.70;;;11.40;84.70;;;;;;5026533;28;21027;-72
2024/02/08 10:04:03;;;;;;;3.23;1.00;;;11.50;84.40;;;;;;5027594;28;20412;-74
2024/02/08 10:06:45;;;;;;;1.63;1.00;;;11.50;84.00;;;;;;5028988;28;20416;-73
2024/02/08 10:11:58;;;;;;;2.87;0.93;;;11.50;84.10;;;;;;5025027;28;20911;-72
2024/02/08 10:14:25;;;;;;;1.50;1.03;;;11.60;84.00;;;;;;5031063;28;20491;-72
2024/02/08 10:16:58;;;;;;;1.70;0.97;;;11.70;83.60;;;;;;5032309;28;20426;-73
2024/02/08 10:21:57;;;;;;;2.20;0.80;;;11.80;83.00;;;;;;5025551;28;20459;-73
2024/02/08 10:27:14;;;;;;;1.20;0.90;;;11.80;82.50;;;;;;5032365;28;20407;-72
2024/02/08 10:29:43;;;;;;;2.43;0.80;;;11.80;82.70;;;;;;5032543;28;20430;-73
2024/02/08 10:32:13;;;;;;;3.90;1.03;;;11.90;82.20;;;;;;5024075;28;20444;-72
2024/02/08 10:34:43;;;;;;;2.50;1.37;;;12.00;82.10;;;;;;5025875;28;20468;-73
2024/02/08 10:37:46;;;;;;;1.27;0.87;;;12.00;81.90;;;;;;5027336;28;20420;-71
2024/02/08 10:40:28;;;;;;;4.30;1.00;;;12.00;81.70;;;;;;5030808;28;20477;-71
2024/02/08 10:42:50;;;;;;;1.10;0.80;;;12.00;81.80;;;;;;5028435;28;20471;-72
2024/02/08 10:45:17;;;;;;;1.90;1.00;;;12.00;81.90;;;;;;5030221;28;20489;-72
2024/02/08 10:47:47;;;;;;;3.17;0.73;;;12.00;82.20;;;;;;5032310;28;20523;-73
2024/02/08 10:50:20;;;;;;;1.97;1.07;;;11.90;82.50;;;;;;5030840;28;20420;-72
2024/02/08 10:52:51;;;;;;;1.37;1.00;;;11.80;83.30;;;;;;5026949;28;20432;-73
2024/02/08 10:55:18;;;;;;;1.10;0.83;;;11.80;84.00;;;;;;5032462;28;20551;-74
2024/02/08 11:08:32;;;;;;;1.00;0.77;;;11.50;85.30;;;;;;5031435;28;20485;-74
2024/02/08 11:11:03;;;;;;;1.10;0.90;;;11.60;84.90;;;;;;5024186;28;20457;-73
2024/02/08 11:13:37;;;;;;;1.47;1.10;;;11.70;85.00;;;;;;5025744;28;20939;-72
2024/02/08 11:16:19;;;;;;;1.00;0.90;;;11.80;84.40;;;;;;5031596;28;20630;-72
2024/02/08 11:18:52;;;;;;;1.20;0.80;;;12.00;83.70;;;;;;5029491;28;20455;-73
2024/02/08 11:21:24;;;;;;;1.17;0.70;;;12.10;83.40;;;;;;5027234;28;20916;-72
2024/02/08 11:23:53;;;;;;;1.00;0.70;;;12.10;82.80;;;;;;5027920;28;20456;-74
2024/02/08 11:26:25;;;;;;;1.47;0.83;;;12.20;82.80;;;;;;5030856;28;20428;-73
2024/02/08 11:29:20;;;;;;;1.53;0.90;;;12.30;82.40;;;;;;5030765;28;20428;-73
2024/02/08 11:31:46;;;;;;;1.87;0.97;;;12.40;81.90;;;;;;5024005;28;20510;-73
2024/02/08 11:34:23;;;;;;;1.20;1.00;;;12.40;81.70;;;;;;5029524;28;20499;-71
2024/02/08 11:36:52;;;;;;;1.47;0.90;;;12.50;81.50;;;;;;5029614;28;20197;-73
2024/02/08 11:39:28;;;;;;;1.97;1.03;;;12.50;81.70;;;;;;5023935;28;20515;-72
2024/02/08 11:41:57;;;;;;;4.57;0.93;;;12.60;81.40;;;;;;5025305;28;20463;-72
2024/02/08 11:44:25;;;;;;;2.27;0.90;;;12.60;81.10;;;;;;5025027;28;20796;-73
2024/02/08 11:47:01;;;;;;;2.07;0.90;;;12.70;80.90;;;;;;5031411;28;20420;-73
2024/02/08 11:49:35;;;;;;;2.00;1.20;;;12.80;80.50;;;;;;5031362;28;20431;-72
2024/02/08 11:52:06;;;;;;;2.40;1.00;;;12.70;80.00;;;;;;5023400;28;20831;-73
2024/02/08 11:54:37;;;;;;;1.33;0.87;;;12.70;80.30;;;;;;5023504;28;20463;-72
2024/02/08 11:57:07;;;;;;;11.20;1.20;;;12.70;80.00;;;;;;5030210;28;20416;-72
2024/02/08 11:59:36;;;;;;;1.90;1.10;;;12.70;80.20;;;;;;5030488;28;20419;-72
2024/02/08 12:02:08;;;;;;;3.53;1.37;;;12.80;80.00;;;;;;5020444;28;20480;-72
2024/02/08 12:04:37;;;;;;;2.13;1.03;;;12.80;79.90;;;;;;5025748;28;20542;-73
2024/02/08 12:07:04;;;;;;;1.70;0.90;;;12.80;79.90;;;;;;5030542;28;20420;-73
2024/02/08 12:09:31;;;;;;;3.20;1.10;;;12.80;79.70;;;;;;5031546;28;20889;-72
2024/02/08 12:11:58;;;;;;;3.00;0.90;;;12.80;79.30;;;;;;5022422;28;20467;-72
2024/02/08 12:14:26;;;;;;;2.07;1.10;;;12.80;79.60;;;;;;5028475;28;20451;-73
2024/02/08 12:16:57;;;;;;;2.40;0.90;;;12.90;79.50;;;;;;5032082;28;20420;-72
2024/02/08 12:19:24;;;;;;;3.20;1.20;;;12.90;78.90;;;;;;5031851;28;20470;-71
2024/02/08 12:21:57;;;;;;;3.53;1.27;;;12.90;79.30;;;;;;5022474;28;20512;-71
2024/02/08 12:24:24;;;;;;;2.43;1.10;;;12.90;79.00;;;;;;5028462;28;20475;-73
2024/02/08 12:26:57;;;;;;;2.17;1.10;;;13.00;78.90;;;;;;5032415;28;20443;-72
2024/02/08 12:29:25;;;;;;;4.80;2.10;;;13.10;78.00;;;;;;5031331;28;20432;-72
2024/02/08 12:31:55;;;;;;;8.53;1.20;;;13.10;78.30;;;;;;5021647;28;20467;-73
2024/02/08 12:34:32;;;;;;;3.00;1.20;;;13.20;77.40;;;;;;5029411;28;20483;-71
2024/02/08 12:37:05;;;;;;;2.90;1.20;;;13.20;77.40;;;;;;5030983;28;20423;-72
2024/02/08 12:39:38;;;;;;;3.47;1.20;;;13.10;76.80;;;;;;5026551;28;20459;-72
2024/02/08 12:42:05;;;;;;;5.47;1.50;;;13.10;76.80;;;;;;5026501;28;20525;-72
2024/02/08 12:44:34;;;;;;;3.67;1.50;;;13.10;76.80;;;;;;5030097;28;20478;-73
2024/02/08 12:47:06;;;;;;;2.10;1.17;;;13.20;76.70;;;;;;5030822;28;20423;-72
2024/02/08 12:49:35;;;;;;;13.23;2.03;;;13.30;75.80;;;;;;5031024;28;20435;-72
2024/02/08 12:52:15;;;;;;;3.83;1.80;;;13.30;75.80;;;;;;5025576;28;20485;-72
2024/02/08 12:54:41;;;;;;;3.43;1.10;;;13.30;75.70;;;;;;5031079;28;20494;-72
2024/02/08 12:57:10;;;;;;;6.50;1.87;;;13.40;75.50;;;;;;5034867;28;20420;-71
2024/02/08 12:59:42;;;;;;;6.00;1.83;;;13.50;75.10;;;;;;5034445;28;20436;-72
2024/02/08 13:02:18;;;;;;;6.97;1.50;;;13.50;74.50;;;;;;5026928;28;20455;-71
2024/02/08 13:04:48;;;;;;;3.40;1.37;;;13.40;74.00;;;;;;5035819;28;20423;-72
2024/02/08 13:07:15;;;;;;;5.23;1.60;;;13.40;74.00;;;;;;5034101;28;20435;-72
2024/02/08 13:09:43;;;;;;;7.00;1.70;;;13.30;73.50;;;;;;5033082;28;20838;-72
2024/02/08 13:12:15;;;;;;;4.70;2.00;;;13.40;73.60;;;;;;5026042;28;20450;-70
2024/02/08 13:14:49;;;;;;;6.27;2.00;;;13.40;73.60;;;;;;5029842;28;20546;-70
2024/02/08 13:17:18;;;;;;;4.10;1.80;;;13.50;73.50;;;;;;5033429;28;20478;-74
2024/02/08 13:19:49;;;;;;;10.30;2.60;;;13.60;73.20;;;;;;5033097;28;20778;-72
2024/02/08 13:22:20;;;;;;;6.20;1.80;;;13.50;72.70;;;;;;5020875;28;20437;-69
2024/02/08 13:24:48;;;;;;;10.27;1.90;;;13.60;72.70;;;;;;5028433;28;20743;-72
2024/02/08 13:27:18;;;;;;;6.77;2.43;;;13.50;72.40;;;;;;5032273;28;20416;-73
2024/02/08 13:29:44;;;;;;;6.33;2.03;;;13.50;72.60;;;;;;5034191;28;20416;-72
2024/02/08 13:32:10;;;;;;;15.43;2.90;;;13.60;72.70;;;;;;5032574;28;20467;-71
2024/02/08 13:34:40;;;;;;;6.33;2.40;;;13.60;72.70;;;;;;5033647;28;20854;-73
2024/02/08 13:37:15;;;;;;;12.33;3.77;;;13.60;72.10;;;;;;5035636;28;20556;-72
2024/02/08 13:39:44;;;;;;;8.00;2.27;;;13.60;72.00;;;;;;5033253;28;20403;-73
2024/02/08 13:42:11;;;;;;;7.47;2.83;;;13.70;72.00;;;;;;5029521;28;20560;-72
2024/02/08 13:44:36;;;;;;;8.87;2.80;;;13.70;71.60;;;;;;5037140;28;20427;-72
2024/02/08 13:47:03;;;;;;;10.17;2.40;;;13.70;71.60;;;;;;5039666;28;20415;-72
2024/02/08 13:49:32;;;;;;;8.53;2.40;;;13.80;71.10;;;;;;5038605;28;20296;-72
2024/02/08 13:51:59;;;;;;;18.33;2.37;;;13.80;71.10;;;;;;5024894;28;20554;-70
2024/02/08 13:54:27;;;;;;;16.97;3.33;;;13.80;70.70;;;;;;5030226;28;20912;-72
2024/02/08 13:56:55;;;;;;;14.53;3.27;;;13.80;71.10;;;;;;5032720;28;20440;-72
2024/02/08 13:59:22;;;;;;;12.70;3.10;;;13.70;71.30;;;;;;5028494;28;20411;-70
2024/02/08 14:01:48;;;;;;;17.97;3.50;;;13.70;71.10;;;;;;5023562;28;20545;-72
2024/02/08 14:04:20;;;;;;;10.80;2.70;;;13.70;71.10;;;;;;5031367;28;20515;-72
2024/02/08 14:06:55;;;;;;;9.93;2.73;;;13.70;71.30;;;;;;5033438;28;20672;-71
2024/02/08 14:09:23;;;;;;;16.03;2.90;;;13.70;71.60;;;;;;5028005;28;20943;-73
2024/02/08 14:11:55;;;;;;;18.50;3.87;;;13.80;71.10;;;;;;5023487;28;20505;-71
2024/02/08 14:14:40;;;;;;;22.37;3.10;;;13.70;71.00;;;;;;5026226;28;20545;-72
2024/02/08 14:17:10;;;;;;;15.50;2.77;;;13.80;71.10;;;;;;5033235;28;20411;-70
2024/02/08 14:19:37;;;;;;;13.20;3.40;;;13.70;71.10;;;;;;5031384;28;20432;-71
2024/02/08 14:22:06;;;;;;;10.20;3.50;;;13.70;71.40;;;;;;5028082;28;21144;-72
2024/02/08 14:24:38;;;;;;;14.93;3.70;;;13.70;71.40;;;;;;5035543;28;20481;-72
2024/02/08 14:27:10;;;;;;;11.47;2.60;;;13.70;71.10;;;;;;5033093;28;20439;-71
2024/02/08 14:29:36;;;;;;;17.67;3.40;;;13.60;71.10;;;;;;5033994;28;20440;-70
2024/02/08 14:32:08;;;;;;;10.37;3.87;;;13.60;71.10;;;;;;5029176;28;20491;-71
2024/02/08 14:34:36;;;;;;;8.13;2.67;;;13.60;71.30;;;;;;5033550;28;20236;-70
2024/02/08 14:37:05;;;;;;;11.67;3.37;;;13.70;71.10;;;;;;5034654;28;20866;-71
2024/02/08 14:39:35;;;;;;;9.47;3.50;;;13.70;71.30;;;;;;5034013;28;20857;-73
2024/02/08 14:42:11;;;;;;;10.60;3.20;;;13.70;71.00;;;;;;5020401;28;20475;-70
2024/02/08 14:45:16;;;;;;;13.23;4.97;;;13.80;71.10;;;;;;5033114;28;20447;-71
2024/02/08 14:47:34;;;;;;;11.80;3.57;;;13.80;70.50;;;;;;5026692;28;20527;-72
2024/02/08 14:50:00;;;;;;;9.87;3.30;;;13.80;70.50;;;;;;5033702;28;20773;-69
2024/02/08 14:52:29;;;;;;;16.30;3.63;;;13.80;70.50;;;;;;5028200;28;20971;-73
2024/02/08 14:54:59;;;;;;;8.33;2.80;;;13.80;70.70;;;;;;5033185;28;20257;-72
2024/02/08 14:57:38;;;;;;;9.47;3.57;;;13.70;71.00;;;;;;5035365;28;21044;-73
2024/02/08 15:03:07;;;;;;;19.97;3.87;;;13.60;71.30;;;;;;5023342;28;20417;-72
2024/02/08 15:05:48;;;;;;;25.70;5.67;;;13.60;71.40;;;;;;5036520;28;20427;-71
2024/02/08 15:11:50;;;;;;;23.20;3.83;;;13.60;71.70;;;;;;5031058;28;20456;-73
2024/02/08 15:13:49;;;;;;;8.03;2.43;;;13.50;71.70;;;;;;5020774;28;20522;-68
2024/02/08 15:16:21;;;;;;;15.70;3.87;;;13.40;71.60;;;;;;5034754;28;20944;-71
2024/02/08 15:18:48;;;;;;;11.83;4.80;;;13.40;71.70;;;;;;5033836;28;20424;-69
2024/02/08 15:21:23;;;;;;;15.13;3.40;;;13.40;71.60;;;;;;5028640;28;20466;-71
2024/02/08 15:26:37;;;;;;;11.93;4.67;;;13.50;71.70;;;;;;5031346;28;20431;-70
2024/02/08 15:29:09;;;;;;;13.23;3.47;;;13.40;71.70;;;;;;5032049;28;20422;-71
2024/02/08 15:37:13;;;;;;;14.10;3.27;;;13.40;71.60;;;;;;5038795;28;20520;-73
2024/02/08 15:42:10;;;;;;;13.13;4.30;;;13.40;71.70;;;;;;5027022;28;21365;-71